Time;durP1;ratioP1;P1;durP2;ratioP2;P2;SDS_P1;SDS_P2;PMS_P1;PMS_P2;Temp;Humidity;BMP_temperature;BMP_pressure;BME280_temperature;BME280_humidity;BME280_pressure;Samples;Min_cycle;Max_cycle;Signal;HPM_P1;HPM_P2
2023/09/12 00:00:11;;;;;;;2.83;1.98;;;;;;;21.72;67.59;99041.16;334142;29;19311;-64
2023/09/12 00:00:23;;;;;;;2.83;1.90;;;;;;;21.74;67.20;99041.84;336384;29;4542;-65
2023/09/12 00:00:35;;;;;;;3.08;1.77;;;;;;;21.74;66.96;99042.69;328861;29;18471;-65
2023/09/12 00:00:48;;;;;;;3.08;1.80;;;;;;;21.75;67.47;99046.16;336611;28;4700;-64
2023/09/12 00:01:07;;;;;;;3.60;2.00;;;;;;;21.75;67.37;99048.81;330891;29;19332;-67
2023/09/12 00:01:19;;;;;;;3.58;2.30;;;;;;;21.74;67.33;99037.41;335410;29;17636;-66
2023/09/12 00:01:32;;;;;;;3.40;2.08;;;;;;;21.73;67.65;99051.63;334049;28;17985;-64
2023/09/12 00:01:44;;;;;;;4.05;1.95;;;;;;;21.75;67.36;99046.16;333397;28;5548;-66
2023/09/12 00:01:56;;;;;;;3.80;2.05;;;;;;;21.75;67.29;99043.50;331576;29;4504;-65
2023/09/12 00:02:09;;;;;;;3.45;2.10;;;;;;;21.74;67.21;99047.16;336571;29;4669;-65
2023/09/12 00:02:21;;;;;;;3.83;2.42;;;;;;;21.74;67.15;99047.97;333516;29;17980;-65
2023/09/12 00:02:33;;;;;;;3.20;2.30;;;;;;;21.75;67.72;99046.16;336030;29;4706;-65
2023/09/12 00:02:45;;;;;;;3.47;2.40;;;;;;;21.74;67.06;99047.97;333677;29;18551;-65
2023/09/12 00:02:57;;;;;;;5.03;2.40;;;;;;;21.72;67.16;99047.28;335841;29;5311;-65
2023/09/12 00:03:10;;;;;;;5.22;2.40;;;;;;;21.71;67.07;99048.25;334074;29;16406;-65
2023/09/12 00:03:23;;;;;;;3.75;2.30;;;;;;;21.71;66.72;99047.41;336457;29;4669;-66
2023/09/12 00:03:38;;;;;;;4.47;2.42;;;;;;;21.73;67.10;99040.16;329038;29;11922;-67
2023/09/12 00:03:50;;;;;;;3.95;2.08;;;;;;;21.73;67.14;99048.09;334819;29;5135;-67
2023/09/12 00:04:02;;;;;;;3.83;2.00;;;;;;;21.73;67.31;99041.03;335110;29;17968;-65
2023/09/12 00:04:14;;;;;;;3.30;2.30;;;;;;;21.72;67.35;99049.09;336433;28;4740;-64
2023/09/12 00:04:28;;;;;;;3.15;2.30;;;;;;;21.72;67.58;99043.81;333966;29;17927;-65
2023/09/12 00:04:40;;;;;;;3.28;2.20;;;;;;;21.73;66.94;99040.16;336224;28;4639;-65
2023/09/12 00:04:52;;;;;;;4.30;2.33;;;;;;;21.74;67.12;99044.50;329032;28;18117;-65
2023/09/12 00:05:04;;;;;;;5.50;2.22;;;;;;;21.75;67.43;99043.50;336183;28;4870;-64
2023/09/12 00:05:16;;;;;;;5.35;2.20;;;;;;;21.71;67.47;99042.97;329949;28;17732;-65
2023/09/12 00:05:28;;;;;;;5.57;2.40;;;;;;;21.73;67.80;99045.47;336486;28;4851;-64
2023/09/12 00:05:40;;;;;;;3.25;2.40;;;;;;;21.72;67.53;99049.09;334102;28;12088;-66
2023/09/12 00:05:58;;;;;;;4.47;2.30;;;;;;;21.68;68.08;99042.41;336544;28;4521;-65
2023/09/12 00:06:10;;;;;;;6.15;2.72;;;;;;;21.66;67.74;99044.34;334979;29;17851;-65
2023/09/12 00:06:22;;;;;;;4.72;2.70;;;;;;;21.66;67.60;99041.69;332552;29;18986;-65
2023/09/12 00:06:34;;;;;;;3.53;2.50;;;;;;;21.68;67.52;99039.75;334768;29;4551;-65
2023/09/12 00:06:46;;;;;;;2.80;2.10;;;;;;;21.69;67.87;99047.56;333622;29;11693;-66
2023/09/12 00:06:58;;;;;;;2.83;1.92;;;;;;;21.72;67.77;99043.81;333895;29;19068;-66
2023/09/12 00:07:10;;;;;;;4.28;2.00;;;;;;;21.72;67.76;99043.81;336585;29;4552;-64
2023/09/12 00:07:22;;;;;;;4.30;2.00;;;;;;;21.73;67.83;99045.47;333884;29;17884;-65
2023/09/12 00:07:35;;;;;;;3.65;2.13;;;;;;;21.73;67.54;99043.69;336398;29;5371;-65
2023/09/12 00:07:47;;;;;;;3.13;2.05;;;;;;;21.74;67.77;99042.69;333627;29;18280;-66
2023/09/12 00:07:59;;;;;;;4.75;2.03;;;;;;;21.73;67.86;99043.69;336286;29;4566;-65
2023/09/12 00:08:11;;;;;;;5.28;2.10;;;;;;;21.74;67.65;99041.84;332022;29;4666;-65
2023/09/12 00:08:24;;;;;;;3.65;2.00;;;;;;;21.75;67.72;99040.88;333964;29;18453;-65
2023/09/12 00:08:36;;;;;;;4.05;2.10;;;;;;;21.72;67.84;99043.81;336624;29;4514;-64
2023/09/12 00:08:48;;;;;;;3.78;2.40;;;;;;;21.74;67.79;99041.84;334003;29;17864;-64
2023/09/12 00:09:00;;;;;;;3.15;2.22;;;;;;;21.74;67.94;99041.84;336549;29;4659;-64
2023/09/12 00:09:12;;;;;;;2.60;1.95;;;;;;;21.75;68.00;99038.22;335664;28;4693;-65
2023/09/12 00:09:24;;;;;;;2.92;1.98;;;;;;;21.73;68.49;99042.81;328872;28;18221;-65
2023/09/12 00:09:36;;;;;;;2.88;2.10;;;;;;;21.73;67.91;99042.81;336763;28;4495;-65
2023/09/12 00:09:48;;;;;;;3.03;2.20;;;;;;;21.73;68.29;99042.81;330435;28;18181;-65
2023/09/12 00:10:00;;;;;;;4.15;2.17;;;;;;;21.73;68.02;99045.47;336044;28;4665;-65
2023/09/12 00:10:12;;;;;;;5.65;2.30;;;;;;;21.72;68.01;99034.06;333937;28;5212;-66
2023/09/12 00:10:25;;;;;;;5.10;2.20;;;;;;;21.72;68.04;99044.63;335871;28;4532;-65
2023/09/12 00:10:37;;;;;;;6.30;2.30;;;;;;;21.73;68.01;99040.16;336600;28;4496;-65
2023/09/12 00:11:10;;;;;;;7.60;2.33;;;;;;;21.72;68.17;99035.88;333970;28;18265;-66
2023/09/12 00:11:25;;;;;;;6.30;2.30;;;;;;;21.71;68.38;99034.19;332523;28;17624;-65
2023/09/12 00:11:38;;;;;;;4.32;2.50;;;;;;;21.72;67.81;99043.81;332842;28;18250;-66
2023/09/12 00:11:50;;;;;;;3.60;2.30;;;;;;;21.74;67.97;99036.56;335253;28;4468;-65
2023/09/12 00:12:03;;;;;;;2.72;2.03;;;;;;;21.74;67.60;99036.56;336296;28;4722;-65
2023/09/12 00:12:16;;;;;;;2.78;2.00;;;;;;;21.70;68.01;99037.81;334060;28;18374;-65
2023/09/12 00:12:28;;;;;;;3.85;1.92;;;;;;;21.70;68.32;99038.66;331876;28;5278;-65
2023/09/12 00:12:40;;;;;;;5.93;2.20;;;;;;;21.69;67.98;99039.63;333565;28;19359;-65
2023/09/12 00:12:53;;;;;;;5.15;2.22;;;;;;;21.69;68.08;99038.78;336369;28;4865;-65
2023/09/12 00:13:05;;;;;;;4.85;2.15;;;;;;;21.70;68.26;99036.00;333937;28;18087;-64
2023/09/12 00:13:17;;;;;;;3.00;2.00;;;;;;;21.71;68.51;99042.13;336564;28;4610;-64
2023/09/12 00:13:31;;;;;;;3.53;2.13;;;;;;;21.70;67.94;99040.47;334991;28;17991;-65
2023/09/12 00:13:43;;;;;;;3.75;2.28;;;;;;;21.70;68.06;99035.16;337614;28;4991;-65
2023/09/12 00:13:55;;;;;;;3.13;1.95;;;;;;;21.71;68.20;99036.81;330695;28;18098;-65
2023/09/12 00:14:08;;;;;;;2.17;1.75;;;;;;;21.72;67.91;99036.69;337324;28;4734;-66
2023/09/12 00:14:20;;;;;;;2.90;1.90;;;;;;;21.71;67.95;99036.81;332462;28;19295;-65
2023/09/12 00:14:32;;;;;;;2.78;1.95;;;;;;;21.72;68.01;99044.63;337285;28;5015;-65
2023/09/12 00:14:44;;;;;;;2.80;2.00;;;;;;;21.74;68.22;99039.22;335007;28;17063;-67
2023/09/12 00:14:56;;;;;;;3.00;2.22;;;;;;;21.74;67.94;99032.09;337337;28;5401;-65
2023/09/12 00:15:09;;;;;;;3.23;2.40;;;;;;;21.73;68.33;99034.88;337536;28;4573;-65
2023/09/12 00:15:21;;;;;;;6.15;2.33;;;;;;;21.70;68.01;99035.16;335110;28;17804;-65
2023/09/12 00:15:33;;;;;;;6.63;2.20;;;;;;;21.70;67.85;99036.00;336983;28;4723;-65
2023/09/12 00:15:45;;;;;;;6.45;2.20;;;;;;;21.69;68.27;99044.06;333944;28;18466;-65
2023/09/12 00:15:58;;;;;;;4.10;2.30;;;;;;;21.70;68.18;99043.09;335816;28;4511;-65
2023/09/12 00:16:11;;;;;;;4.28;2.20;;;;;;;21.70;68.38;99037.81;334054;29;18111;-65
2023/09/12 00:16:23;;;;;;;6.82;2.42;;;;;;;21.69;68.06;99034.34;336477;29;4516;-65
2023/09/12 00:16:35;;;;;;;6.47;2.40;;;;;;;21.70;68.34;99035.16;335348;29;18404;-66
2023/09/12 00:16:47;;;;;;;5.22;2.42;;;;;;;21.72;68.11;99033.22;334904;29;17592;-65
2023/09/12 00:16:59;;;;;;;4.00;2.40;;;;;;;21.71;68.24;99037.69;336304;28;4658;-65
2023/09/12 00:17:12;;;;;;;3.25;2.20;;;;;;;21.71;68.16;99036.81;333766;29;17895;-65
2023/09/12 00:17:24;;;;;;;3.72;2.25;;;;;;;21.72;68.07;99041.16;336437;29;4535;-64
2023/09/12 00:17:36;;;;;;;3.95;2.40;;;;;;;21.71;67.87;99039.47;333848;29;19172;-65
2023/09/12 00:17:49;;;;;;;4.72;2.47;;;;;;;21.69;68.22;99038.78;336329;29;4540;-65
2023/09/12 00:18:01;;;;;;;4.27;2.10;;;;;;;21.70;68.05;99035.16;333796;29;18222;-67
2023/09/12 00:18:13;;;;;;;3.95;2.22;;;;;;;21.68;68.53;99034.47;335969;29;4621;-64
2023/09/12 00:18:25;;;;;;;5.53;2.35;;;;;;;21.68;68.30;99034.47;334041;29;11849;-66
2023/09/12 00:18:38;;;;;;;4.68;2.30;;;;;;;21.68;68.30;99034.47;336052;29;4541;-65
2023/09/12 00:18:51;;;;;;;4.43;2.15;;;;;;;21.69;68.39;99038.78;333802;29;19143;-67
2023/09/12 00:19:03;;;;;;;5.88;2.30;;;;;;;21.66;68.61;99034.59;337422;28;4719;-66
2023/09/12 00:19:15;;;;;;;6.40;2.25;;;;;;;21.62;68.46;99037.66;335279;28;11915;-67
2023/09/12 00:19:27;;;;;;;4.65;2.42;;;;;;;21.61;68.60;99035.97;336950;28;18157;-65
2023/09/12 00:19:39;;;;;;;3.92;2.25;;;;;;;21.62;68.10;99032.38;336462;28;5280;-66
2023/09/12 00:19:51;;;;;;;5.20;2.30;;;;;;;21.62;68.20;99030.56;329556;28;5644;-67
2023/09/12 00:20:06;;;;;;;6.40;2.35;;;;;;;21.63;68.19;99034.03;334089;29;17586;-65
2023/09/12 00:20:18;;;;;;;5.03;2.00;;;;;;;21.59;68.32;99032.63;332686;29;17958;-64
2023/09/12 00:20:30;;;;;;;3.28;1.92;;;;;;;21.58;68.38;99030.97;335179;29;4535;-65
2023/09/12 00:20:42;;;;;;;3.50;2.17;;;;;;;21.56;68.88;99035.56;332300;29;18102;-64
2023/09/12 00:20:54;;;;;;;3.50;2.33;;;;;;;21.56;68.43;99030.28;335059;29;4658;-64
2023/09/12 00:21:06;;;;;;;3.80;2.38;;;;;;;21.58;68.49;99037.09;334642;29;5587;-66
2023/09/12 00:21:18;;;;;;;5.03;2.58;;;;;;;21.60;68.37;99029.03;332589;29;18237;-64
2023/09/12 00:21:30;;;;;;;4.85;2.22;;;;;;;21.61;68.65;99035.97;335065;29;4590;-65
2023/09/12 00:21:42;;;;;;;3.58;2.42;;;;;;;21.63;68.57;99034.03;333007;29;18933;-65
2023/09/12 00:21:55;;;;;;;3.85;2.58;;;;;;;21.58;68.57;99030.97;336115;29;4649;-66
2023/09/12 00:22:07;;;;;;;4.03;2.45;;;;;;;21.50;68.55;99029.81;333712;29;18525;-66
2023/09/12 00:22:19;;;;;;;4.97;2.30;;;;;;;21.48;68.90;99034.41;336084;29;5130;-65
2023/09/12 00:22:31;;;;;;;5.03;2.42;;;;;;;21.49;68.87;99027.31;336454;29;4729;-65
2023/09/12 00:22:43;;;;;;;6.68;2.60;;;;;;;21.51;68.55;99036.81;331070;29;18201;-65
2023/09/12 00:22:56;;;;;;;7.30;2.47;;;;;;;21.53;68.59;99034.84;334108;29;19232;-65
2023/09/12 00:23:08;;;;;;;7.28;2.50;;;;;;;21.57;68.71;99031.91;333777;28;18607;-65
2023/09/12 00:23:22;;;;;;;5.20;2.53;;;;;;;21.59;68.25;99032.63;336271;28;4918;-64
2023/09/12 00:23:34;;;;;;;4.75;2.58;;;;;;;21.59;68.36;99027.34;333570;28;18104;-65
2023/09/12 00:23:46;;;;;;;3.88;2.13;;;;;;;21.59;68.20;99032.63;336133;28;5242;-64
2023/09/12 00:23:58;;;;;;;3.85;2.00;;;;;;;21.60;68.73;99032.50;333548;28;17875;-65
2023/09/12 00:24:10;;;;;;;4.00;1.80;;;;;;;21.60;68.44;99034.31;332011;28;4686;-64
2023/09/12 00:24:22;;;;;;;4.30;1.92;;;;;;;21.60;68.42;99027.22;336401;28;4726;-65
2023/09/12 00:24:34;;;;;;;3.77;2.13;;;;;;;21.60;68.77;99029.03;333600;28;19229;-65
2023/09/12 00:24:46;;;;;;;4.20;2.50;;;;;;;21.58;68.54;99030.97;336283;28;4602;-65
2023/09/12 00:24:58;;;;;;;3.38;2.58;;;;;;;21.53;68.97;99036.63;333402;28;18088;-66
2023/09/12 00:25:10;;;;;;;3.17;2.38;;;;;;;21.53;68.72;99028.72;335977;29;5202;-65
2023/09/12 00:25:22;;;;;;;4.35;2.22;;;;;;;21.50;68.60;99034.28;336481;29;5406;-65
2023/09/12 00:25:34;;;;;;;4.72;2.28;;;;;;;21.50;68.78;99035.13;333717;29;18110;-65
2023/09/12 00:25:46;;;;;;;5.43;2.38;;;;;;;21.48;68.59;99037.06;336523;28;4838;-64
2023/09/12 00:25:58;;;;;;;6.63;2.63;;;;;;;21.46;68.76;99038.16;334524;29;5446;-67
2023/09/12 00:26:10;;;;;;;5.18;2.50;;;;;;;21.45;68.91;99029.41;335280;29;17392;-64
2023/09/12 00:26:22;;;;;;;4.03;2.35;;;;;;;21.48;68.48;99037.06;336382;29;5440;-65
2023/09/12 00:26:34;;;;;;;4.15;2.30;;;;;;;21.44;68.87;99034.81;333500;29;18037;-65
2023/09/12 00:26:46;;;;;;;4.20;2.20;;;;;;;21.41;68.72;99035.91;336702;29;5176;-65
2023/09/12 00:26:58;;;;;;;4.80;2.30;;;;;;;21.42;69.02;99031.44;336528;29;5413;-65
2023/09/12 00:27:10;;;;;;;5.10;2.50;;;;;;;21.40;68.89;99036.03;334003;28;18066;-65
2023/09/12 00:27:22;;;;;;;7.55;2.72;;;;;;;21.42;68.69;99039.38;336341;29;4680;-65
2023/09/12 00:27:34;;;;;;;7.80;2.67;;;;;;;21.41;69.27;99035.03;333938;29;18287;-65
2023/09/12 00:27:46;;;;;;;4.55;2.20;;;;;;;21.44;68.76;99029.53;336512;28;4704;-64
2023/09/12 00:27:58;;;;;;;5.25;2.20;;;;;;;21.45;69.18;99037.34;333848;29;13174;-66
2023/09/12 00:28:10;;;;;;;5.80;2.40;;;;;;;21.45;69.20;99034.69;336273;29;4549;-65
2023/09/12 00:28:22;;;;;;;5.03;2.58;;;;;;;21.44;68.67;99029.53;336061;29;4482;-65
2023/09/12 00:28:34;;;;;;;4.25;2.63;;;;;;;21.39;69.13;99032.56;336258;29;5582;-66
2023/09/12 00:28:46;;;;;;;4.18;2.45;;;;;;;21.39;69.46;99032.56;333958;29;18119;-64
2023/09/12 00:28:58;;;;;;;4.10;2.20;;;;;;;21.41;68.95;99035.91;335887;29;5451;-65
2023/09/12 00:29:10;;;;;;;4.18;2.10;;;;;;;21.42;68.87;99037.56;334017;29;18245;-64
2023/09/12 00:29:22;;;;;;;4.57;1.98;;;;;;;21.43;69.10;99034.00;336686;29;4633;-65
2023/09/12 00:29:34;;;;;;;4.95;2.13;;;;;;;21.44;69.01;99035.66;334485;29;4933;-66
2023/09/12 00:29:46;;;;;;;3.33;2.08;;;;;;;21.44;69.06;99030.38;336404;29;5678;-64
2023/09/12 00:29:58;;;;;;;2.55;2.00;;;;;;;21.41;69.08;99035.91;336619;29;4852;-65
2023/09/12 00:30:10;;;;;;;2.75;1.92;;;;;;;21.41;68.90;99033.25;334018;29;4523;-65
2023/09/12 00:30:22;;;;;;;4.97;2.58;;;;;;;21.42;69.07;99034.91;336430;29;4696;-65
2023/09/12 00:30:34;;;;;;;5.25;2.70;;;;;;;21.43;69.06;99034.00;334193;29;11666;-66
2023/09/12 00:30:46;;;;;;;7.93;2.78;;;;;;;21.45;68.98;99037.34;336242;29;4513;-65
2023/09/12 00:30:58;;;;;;;7.85;2.40;;;;;;;21.46;68.72;99033.72;336163;29;5671;-65
2023/09/12 00:31:10;;;;;;;6.75;2.22;;;;;;;21.42;68.80;99032.28;333997;29;18201;-64
2023/09/12 00:31:22;;;;;;;5.03;2.30;;;;;;;21.43;68.83;99036.63;336731;29;5818;-64
2023/09/12 00:31:34;;;;;;;4.32;2.40;;;;;;;21.44;68.76;99035.66;336467;29;5156;-64
2023/09/12 00:31:46;;;;;;;3.47;2.30;;;;;;;21.44;69.01;99034.81;334047;29;18242;-65
2023/09/12 00:31:58;;;;;;;4.55;2.20;;;;;;;21.44;68.99;99035.66;336704;29;4561;-65
2023/09/12 00:32:10;;;;;;;4.15;2.20;;;;;;;21.45;68.97;99032.06;333601;29;16286;-66
2023/09/12 00:32:22;;;;;;;4.47;2.10;;;;;;;21.46;68.56;99028.41;336801;29;4495;-65
2023/09/12 00:32:34;;;;;;;4.60;2.35;;;;;;;21.45;69.18;99037.34;336348;29;4715;-65
2023/09/12 00:32:46;;;;;;;4.75;2.20;;;;;;;21.42;68.91;99034.91;334168;29;18240;-65
2023/09/12 00:32:58;;;;;;;4.50;2.10;;;;;;;21.42;68.76;99032.28;336402;29;5378;-65
2023/09/12 00:33:11;;;;;;;3.65;2.10;;;;;;;21.44;69.26;99037.47;333790;29;16094;-66
2023/09/12 00:33:23;;;;;;;3.92;2.28;;;;;;;21.43;68.78;99033.13;336370;29;4623;-66
2023/09/12 00:33:35;;;;;;;4.57;2.30;;;;;;;21.44;69.24;99035.66;336245;29;5889;-65
2023/09/12 00:33:47;;;;;;;6.27;2.50;;;;;;;21.45;69.30;99037.34;333903;29;18100;-65
2023/09/12 00:33:59;;;;;;;5.95;2.50;;;;;;;21.47;68.86;99035.41;336061;29;4849;-65
2023/09/12 00:34:16;;;;;;;4.13;2.30;;;;;;;21.48;68.82;99031.75;333457;29;12513;-67
2023/09/12 00:34:28;;;;;;;3.10;2.03;;;;;;;21.48;68.93;99031.75;329119;29;19142;-67
2023/09/12 00:34:40;;;;;;;3.38;2.17;;;;;;;21.52;68.59;99027.06;336274;29;4614;-65
2023/09/12 00:34:51;;;;;;;3.67;2.20;;;;;;;21.52;68.71;99033.16;333903;28;18423;-67
2023/09/12 00:35:04;;;;;;;3.55;2.35;;;;;;;21.52;68.50;99033.16;336351;29;4678;-65
2023/09/12 00:35:16;;;;;;;3.10;2.20;;;;;;;21.51;68.60;99025.38;335982;28;12406;-65
2023/09/12 00:35:28;;;;;;;4.45;2.60;;;;;;;21.49;68.81;99025.53;333945;29;17531;-65
2023/09/12 00:35:40;;;;;;;4.47;2.53;;;;;;;21.48;68.67;99030.94;336415;29;4680;-65
2023/09/12 00:35:52;;;;;;;4.32;2.40;;;;;;;21.47;68.60;99030.09;328937;29;18178;-66
2023/09/12 00:36:04;;;;;;;3.60;2.10;;;;;;;21.50;68.81;99037.75;335060;29;5252;-65
2023/09/12 00:36:16;;;;;;;2.88;1.90;;;;;;;21.50;68.54;99024.53;332704;29;11490;-64
2023/09/12 00:36:28;;;;;;;4.38;2.00;;;;;;;21.49;68.77;99036.09;335037;29;4771;-64
2023/09/12 00:36:40;;;;;;;5.00;2.28;;;;;;;21.50;68.76;99024.53;335266;29;4588;-65
2023/09/12 00:36:52;;;;;;;5.65;2.45;;;;;;;21.49;68.88;99025.53;332555;29;18192;-64
2023/09/12 00:37:04;;;;;;;6.63;2.53;;;;;;;21.50;68.48;99027.19;335163;29;4655;-65
2023/09/12 00:37:17;;;;;;;5.93;2.58;;;;;;;21.48;69.11;99031.75;334484;29;9140;-66
2023/09/12 00:37:29;;;;;;;6.18;2.85;;;;;;;21.46;68.87;99032.88;328050;28;17454;-65
2023/09/12 00:37:41;;;;;;;5.53;2.83;;;;;;;21.48;69.05;99028.28;334902;29;5385;-65
2023/09/12 00:37:53;;;;;;;6.72;2.47;;;;;;;21.45;68.63;99021.47;332715;29;18134;-65
2023/09/12 00:38:06;;;;;;;4.88;2.10;;;;;;;21.45;68.81;99026.75;336859;28;4551;-65
2023/09/12 00:38:18;;;;;;;4.75;2.20;;;;;;;21.46;68.69;99023.13;333892;28;11709;-64
2023/09/12 00:38:30;;;;;;;5.65;2.33;;;;;;;21.44;68.72;99027.72;336584;28;4997;-64
2023/09/12 00:38:42;;;;;;;6.40;2.78;;;;;;;21.41;68.91;99025.31;333893;28;11863;-64
2023/09/12 00:38:55;;;;;;;5.43;2.70;;;;;;;21.40;68.98;99028.94;333924;28;18347;-65
2023/09/12 00:39:07;;;;;;;8.52;2.28;;;;;;;21.39;68.98;99023.75;336537;29;4652;-64
2023/09/12 00:39:19;;;;;;;9.07;2.20;;;;;;;21.38;68.74;99025.59;333829;29;18181;-65
2023/09/12 00:39:31;;;;;;;6.60;2.30;;;;;;;21.37;68.93;99023.94;336610;29;4767;-65
2023/09/12 00:39:43;;;;;;;5.55;2.55;;;;;;;21.37;69.02;99025.72;333805;29;18405;-65
2023/09/12 00:39:55;;;;;;;4.80;2.40;;;;;;;21.37;69.06;99033.63;336430;29;4680;-65
2023/09/12 00:40:07;;;;;;;4.68;2.45;;;;;;;21.35;69.35;99026.69;336598;29;4659;-65
2023/09/12 00:40:19;;;;;;;4.75;2.53;;;;;;;21.38;69.05;99030.88;333633;29;18691;-67
2023/09/12 00:40:32;;;;;;;4.45;2.50;;;;;;;21.39;68.71;99026.41;336474;29;4685;-66
2023/09/12 00:40:44;;;;;;;3.88;2.45;;;;;;;21.39;68.71;99027.28;329613;29;4733;-65
2023/09/12 00:40:56;;;;;;;3.85;2.30;;;;;;;21.36;69.16;99027.53;336452;28;4690;-65
2023/09/12 00:41:08;;;;;;;3.50;2.10;;;;;;;21.37;69.13;99029.22;336742;29;4996;-65
2023/09/12 00:41:20;;;;;;;6.40;2.25;;;;;;;21.37;68.85;99023.94;333594;29;18251;-65
2023/09/12 00:41:32;;;;;;;6.75;2.35;;;;;;;21.37;68.74;99028.34;336685;28;5795;-65
2023/09/12 00:41:44;;;;;;;5.22;2.47;;;;;;;21.38;68.71;99022.94;333778;29;17988;-66
2023/09/12 00:41:56;;;;;;;4.80;2.40;;;;;;;21.38;69.04;99030.03;336570;29;5021;-65
2023/09/12 00:42:08;;;;;;;2.85;2.00;;;;;;;21.37;68.87;99029.22;336645;28;4638;-65
2023/09/12 00:42:20;;;;;;;3.05;2.10;;;;;;;21.39;68.67;99024.63;334151;28;18231;-65
2023/09/12 00:42:32;;;;;;;3.75;2.20;;;;;;;21.38;68.88;99025.59;336670;28;4643;-65
2023/09/12 00:42:44;;;;;;;4.40;2.42;;;;;;;21.39;68.89;99024.63;334122;28;17801;-66
2023/09/12 00:42:56;;;;;;;3.58;2.42;;;;;;;21.38;68.99;99020.28;336184;28;4650;-65
2023/09/12 00:43:08;;;;;;;3.08;2.33;;;;;;;21.41;68.74;99025.31;336464;29;4534;-65
2023/09/12 00:43:20;;;;;;;3.47;2.30;;;;;;;21.43;68.54;99028.72;333918;29;4817;-66
2023/09/12 00:43:32;;;;;;;3.30;2.20;;;;;;;21.43;68.92;99028.72;336531;28;5226;-66
2023/09/12 00:43:44;;;;;;;2.88;2.22;;;;;;;21.42;68.95;99016.41;334202;29;5193;-66
2023/09/12 00:43:56;;;;;;;3.08;2.30;;;;;;;21.42;68.72;99029.63;336616;29;4630;-65
2023/09/12 00:44:09;;;;;;;3.20;2.40;;;;;;;21.42;68.64;99026.16;336333;28;4535;-66
2023/09/12 00:44:21;;;;;;;3.83;2.10;;;;;;;21.43;68.55;99028.72;333977;29;17944;-66
2023/09/12 00:44:33;;;;;;;4.70;2.20;;;;;;;21.43;68.92;99020.78;336411;29;5223;-65
2023/09/12 00:44:45;;;;;;;4.13;2.35;;;;;;;21.45;68.39;99023.25;333827;29;17352;-66
2023/09/12 00:44:57;;;;;;;3.17;2.20;;;;;;;21.44;68.92;99025.06;332106;29;4575;-65
2023/09/12 00:45:09;;;;;;;3.08;2.10;;;;;;;21.45;68.58;99023.25;336510;29;4710;-65
2023/09/12 00:45:21;;;;;;;3.40;2.30;;;;;;;21.44;68.51;99022.44;333716;29;18218;-66
2023/09/12 00:45:33;;;;;;;3.25;2.38;;;;;;;21.43;68.64;99023.41;336647;28;4493;-65
2023/09/12 00:45:46;;;;;;;4.53;2.40;;;;;;;21.44;68.67;99022.44;333995;29;17241;-66
2023/09/12 00:45:58;;;;;;;4.47;2.42;;;;;;;21.43;68.49;99018.13;336303;29;4659;-65
2023/09/12 00:46:10;;;;;;;4.22;2.40;;;;;;;21.41;68.82;99020.03;336667;28;5637;-65
2023/09/12 00:46:23;;;;;;;4.68;2.15;;;;;;;21.41;68.76;99019.19;333744;29;18396;-66
2023/09/12 00:46:36;;;;;;;5.38;1.98;;;;;;;21.39;69.01;99019.34;330597;29;5433;-66
2023/09/12 00:46:49;;;;;;;5.72;2.20;;;;;;;21.40;68.95;99022.81;334708;29;17637;-64
2023/09/12 00:47:03;;;;;;;3.72;2.17;;;;;;;21.39;68.67;99023.75;333640;29;19266;-65
2023/09/12 00:47:16;;;;;;;3.28;1.90;;;;;;;21.39;68.77;99019.34;333809;29;11610;-67
2023/09/12 00:47:30;;;;;;;3.03;1.92;;;;;;;21.40;68.66;99018.34;336277;29;4687;-65
2023/09/12 00:47:42;;;;;;;3.20;2.20;;;;;;;21.42;68.64;99018.22;333769;29;17854;-66
2023/09/12 00:47:57;;;;;;;2.83;2.33;;;;;;;21.43;68.84;99018.13;335498;29;4549;-65
2023/09/12 00:48:12;;;;;;;3.83;2.33;;;;;;;21.42;68.52;99021.69;333832;29;18053;-65
2023/09/12 00:48:25;;;;;;;5.40;2.20;;;;;;;21.42;68.54;99020.88;333405;29;17636;-65
2023/09/12 00:48:38;;;;;;;5.60;2.20;;;;;;;21.42;68.66;99026.16;333847;29;18020;-65
2023/09/12 00:48:52;;;;;;;3.70;2.20;;;;;;;21.39;68.85;99021.97;336241;29;4704;-66
2023/09/12 00:49:07;;;;;;;3.72;2.30;;;;;;;21.40;68.81;99021.00;332275;29;18042;-65
2023/09/12 00:49:22;;;;;;;3.90;2.40;;;;;;;21.39;68.61;99019.34;332528;29;18037;-64
2023/09/12 00:49:34;;;;;;;4.30;2.40;;;;;;;21.40;68.88;99020.16;332774;29;17731;-65
2023/09/12 00:49:48;;;;;;;4.50;2.13;;;;;;;21.40;68.84;99022.81;332434;29;11397;-65
2023/09/12 00:50:08;;;;;;;5.55;2.28;;;;;;;21.37;68.72;99018.63;332775;29;17488;-65
2023/09/12 00:50:23;;;;;;;6.65;2.83;;;;;;;21.35;68.47;99017.94;335257;28;4864;-65
2023/09/12 00:50:37;;;;;;;5.35;2.38;;;;;;;21.24;68.92;99018.84;332582;29;18845;-65
2023/09/12 00:50:49;;;;;;;2.78;1.80;;;;;;;21.25;69.36;99027.59;328018;29;18031;-65
2023/09/12 00:51:02;;;;;;;4.13;2.13;;;;;;;21.24;68.87;99024.13;336105;29;5193;-66
2023/09/12 00:51:15;;;;;;;5.95;2.40;;;;;;;21.26;69.18;99016.91;333593;29;18275;-65
2023/09/12 00:51:29;;;;;;;5.97;2.33;;;;;;;21.28;69.24;99019.44;333555;29;5137;-67
2023/09/12 00:51:42;;;;;;;4.82;2.17;;;;;;;21.28;69.14;99016.78;336488;29;5202;-64
2023/09/12 00:51:56;;;;;;;4.90;2.22;;;;;;;21.30;69.18;99020.13;333510;29;18080;-65
2023/09/12 00:52:08;;;;;;;5.75;2.28;;;;;;;21.30;68.94;99020.13;329212;28;4824;-67
2023/09/12 00:52:22;;;;;;;4.85;2.33;;;;;;;21.32;69.28;99020.84;336687;29;5564;-65
2023/09/12 00:52:36;;;;;;;3.28;2.10;;;;;;;21.33;68.88;99022.53;333721;29;19068;-65
2023/09/12 00:52:49;;;;;;;3.38;2.00;;;;;;;21.30;68.88;99018.31;333758;29;18310;-66
2023/09/12 00:53:03;;;;;;;5.30;2.13;;;;;;;21.29;68.90;99024.59;336279;29;5454;-64
2023/09/12 00:53:16;;;;;;;5.45;2.13;;;;;;;21.27;69.09;99029.16;333636;29;17822;-64
2023/09/12 00:53:28;;;;;;;5.28;2.35;;;;;;;21.27;69.59;99020.38;336045;29;19310;-65
2023/09/12 00:53:40;;;;;;;4.18;2.20;;;;;;;21.30;68.91;99028.06;328989;29;18299;-66
2023/09/12 00:53:53;;;;;;;2.85;1.90;;;;;;;21.29;69.16;99029.03;336300;29;4687;-65
2023/09/12 00:54:06;;;;;;;4.60;2.40;;;;;;;21.28;69.30;99022.91;333983;29;17918;-65
2023/09/12 00:54:18;;;;;;;5.65;2.60;;;;;;;21.29;68.88;99021.13;336606;29;4480;-65
2023/09/12 00:54:30;;;;;;;4.95;2.53;;;;;;;21.31;69.20;99022.66;333786;29;18002;-65
2023/09/12 00:54:42;;;;;;;5.53;2.78;;;;;;;21.31;69.14;99024.47;336645;28;4495;-65
2023/09/12 00:54:55;;;;;;;5.38;2.60;;;;;;;21.32;69.03;99023.47;334264;29;4550;-65
2023/09/12 00:55:07;;;;;;;3.67;2.08;;;;;;;21.32;69.26;99020.84;332061;28;4507;-65
2023/09/12 00:55:19;;;;;;;3.88;2.08;;;;;;;21.31;69.14;99021.81;333586;29;18150;-64
2023/09/12 00:55:34;;;;;;;3.58;2.20;;;;;;;21.30;69.40;99022.78;336080;29;4556;-65
2023/09/12 00:55:51;;;;;;;3.65;2.20;;;;;;;21.29;69.49;99026.41;333580;29;18273;-65
2023/09/12 00:56:03;;;;;;;4.45;2.47;;;;;;;21.27;69.17;99028.31;334261;28;17939;-67
2023/09/12 00:56:16;;;;;;;5.53;2.70;;;;;;;21.27;69.25;99023.03;335104;28;19245;-65
2023/09/12 00:56:28;;;;;;;5.90;2.70;;;;;;;21.21;69.64;99029.72;336279;28;4704;-65
2023/09/12 00:56:40;;;;;;;4.57;2.45;;;;;;;21.15;69.41;99028.44;333805;28;4703;-67
2023/09/12 00:56:52;;;;;;;2.97;2.20;;;;;;;21.12;69.91;99026.03;335459;28;5279;-65
2023/09/12 00:57:04;;;;;;;2.65;1.98;;;;;;;21.09;69.91;99025.50;334367;29;5298;-66
2023/09/12 00:57:16;;;;;;;4.07;2.40;;;;;;;21.09;69.77;99026.31;336267;29;5145;-65
2023/09/12 00:57:31;;;;;;;4.65;2.42;;;;;;;21.11;70.20;99024.38;336199;29;4538;-64
2023/09/12 00:57:44;;;;;;;4.53;2.13;;;;;;;21.11;70.07;99013.81;333769;29;17925;-65
2023/09/12 00:57:57;;;;;;;3.95;2.10;;;;;;;21.14;69.57;99024.09;333745;29;18997;-66
2023/09/12 00:58:09;;;;;;;4.32;2.13;;;;;;;21.14;70.03;99028.56;336397;29;4550;-65
2023/09/12 00:58:21;;;;;;;4.45;2.20;;;;;;;21.15;70.04;99025.78;332666;29;18248;-65
2023/09/12 00:58:33;;;;;;;4.03;2.25;;;;;;;21.19;69.65;99026.38;336334;28;5240;-65
2023/09/12 00:58:45;;;;;;;3.95;2.00;;;;;;;21.20;69.54;99025.38;333895;29;18101;-65
2023/09/12 00:58:58;;;;;;;3.33;1.90;;;;;;;21.19;69.61;99025.50;336309;28;5427;-65
2023/09/12 00:59:10;;;;;;;3.35;2.00;;;;;;;21.16;69.92;99021.31;333606;28;18209;-66
2023/09/12 00:59:23;;;;;;;3.40;2.10;;;;;;;21.15;69.78;99023.13;336571;28;4732;-65
2023/09/12 00:59:35;;;;;;;6.20;2.10;;;;;;;21.16;69.57;99016.03;332140;28;4593;-64
2023/09/12 00:59:49;;;;;;;6.90;2.10;;;;;;;21.14;69.79;99023.25;334014;28;18119;-66
2023/09/12 01:00:14;;;;;;;5.43;2.15;;;;;;;21.12;70.06;99026.03;333408;28;18039;-65
2023/09/12 01:00:26;;;;;;;5.25;2.50;;;;;;;21.12;70.18;99019.91;333855;28;16962;-66